Time;durP1;ratioP1;P1;durP2;ratioP2;P2;SDS_P1;SDS_P2;PMS_P1;PMS_P2;Temp;Humidity;BMP_temperature;BMP_pressure;BME280_temperature;BME280_humidity;BME280_pressure;Samples;Min_cycle;Max_cycle;Signal;HPM_P1;HPM_P2
2023/06/23 00:01:52;;;;;;;5.80;4.50;;;21.10;99.90;;;;;;5054320;28;20789;-73
2023/06/23 00:04:17;;;;;;;8.77;6.20;;;21.10;99.90;;;;;;5052947;28;20171;-73
2023/06/23 00:06:43;;;;;;;6.10;4.70;;;21.10;99.90;;;;;;5052519;28;20286;-74
2023/06/23 00:09:13;;;;;;;6.37;5.20;;;21.10;99.90;;;;;;5054321;28;20174;-73
2023/06/23 00:11:43;;;;;;;6.00;5.40;;;21.00;99.90;;;;;;5054153;28;20159;-74
2023/06/23 00:14:08;;;;;;;9.30;6.90;;;21.10;99.90;;;;;;5054118;28;20409;-74
2023/06/23 00:16:36;;;;;;;4.93;4.40;;;21.00;99.90;;;;;;5053795;28;20487;-73
2023/06/23 00:19:03;;;;;;;5.87;5.27;;;21.00;99.90;;;;;;5053442;28;20209;-72
2023/06/23 00:21:28;;;;;;;7.43;5.67;;;21.00;99.90;;;;;;5053969;28;20403;-73
2023/06/23 00:23:55;;;;;;;5.87;5.10;;;21.00;99.90;;;;;;5053886;28;20409;-74
2023/06/23 00:26:23;;;;;;;8.63;5.20;;;21.00;99.90;;;;;;5053559;28;20183;-73
2023/06/23 00:28:49;;;;;;;6.10;5.50;;;20.90;99.90;;;;;;5053809;28;20417;-74
2023/06/23 00:31:14;;;;;;;7.70;4.77;;;20.90;99.90;;;;;;5053712;28;20441;-73
2023/06/23 00:33:40;;;;;;;5.80;4.10;;;20.90;99.90;;;;;;5053594;28;20202;-74
2023/06/23 00:36:06;;;;;;;6.17;5.03;;;20.80;99.90;;;;;;5053386;28;20605;-74
2023/06/23 00:38:33;;;;;;;6.27;4.87;;;20.80;99.90;;;;;;5053558;28;20750;-74
2023/06/23 00:40:59;;;;;;;8.63;5.10;;;20.80;99.90;;;;;;5052317;28;20174;-73
2023/06/23 00:43:25;;;;;;;6.87;6.17;;;20.80;99.90;;;;;;5053593;28;20922;-73
2023/06/23 00:45:50;;;;;;;6.93;5.30;;;20.80;99.90;;;;;;5053118;28;20182;-74
2023/06/23 00:48:16;;;;;;;10.93;5.00;;;20.80;99.90;;;;;;5053395;28;20174;-72
2023/06/23 00:50:42;;;;;;;9.13;6.77;;;20.70;99.90;;;;;;5052300;28;20175;-74
2023/06/23 00:53:08;;;;;;;8.87;5.40;;;20.70;99.90;;;;;;5053381;28;20504;-72
2023/06/23 00:55:39;;;;;;;5.63;5.07;;;20.60;99.90;;;;;;5052967;28;20489;-74
2023/06/23 00:58:08;;;;;;;5.37;4.27;;;20.60;99.90;;;;;;5053178;28;20155;-72
2023/06/23 01:00:33;;;;;;;8.73;6.57;;;20.60;99.90;;;;;;5053180;28;20463;-74
2023/06/23 01:02:59;;;;;;;6.67;4.10;;;20.60;99.90;;;;;;5052135;28;20405;-74
2023/06/23 01:05:28;;;;;;;9.63;6.67;;;20.60;99.90;;;;;;5052820;28;20175;-73
2023/06/23 01:08:15;;;;;;;8.30;5.20;;;20.50;99.90;;;;;;5051715;28;20207;-73
2023/06/23 01:10:52;;;;;;;5.17;4.37;;;20.50;99.90;;;;;;5053042;28;20397;-72
2023/06/23 01:13:32;;;;;;;6.20;5.20;;;20.50;99.90;;;;;;5053289;28;20874;-73
2023/06/23 01:16:06;;;;;;;6.60;4.60;;;20.50;99.90;;;;;;5052723;28;20470;-73
2023/06/23 01:18:55;;;;;;;7.27;5.33;;;20.50;99.90;;;;;;5052816;28;21012;-73
2023/06/23 01:21:50;;;;;;;6.17;4.83;;;20.50;99.90;;;;;;5051578;28;20497;-72
2023/06/23 01:24:19;;;;;;;7.80;5.13;;;20.50;99.90;;;;;;5052819;28;20401;-73
2023/06/23 01:27:21;;;;;;;9.50;4.53;;;20.50;99.90;;;;;;5052374;28;20782;-73
2023/06/23 01:29:52;;;;;;;12.00;4.00;;;20.50;99.90;;;;;;5051957;28;20458;-71
2023/06/23 01:32:27;;;;;;;3.90;3.50;;;20.40;99.90;;;;;;5052617;28;20412;-72
2023/06/23 01:34:59;;;;;;;4.80;3.20;;;20.40;99.90;;;;;;5051188;28;20459;-73
2023/06/23 01:37:30;;;;;;;3.73;3.40;;;20.40;99.90;;;;;;5052464;28;20475;-73
2023/06/23 01:40:08;;;;;;;4.47;3.50;;;20.50;99.90;;;;;;5051125;28;20453;-73
2023/06/23 01:42:36;;;;;;;4.43;3.90;;;20.50;99.90;;;;;;5051256;28;20431;-73
2023/06/23 01:45:05;;;;;;;9.80;4.70;;;20.50;99.90;;;;;;5052161;28;20405;-73
2023/06/23 01:47:34;;;;;;;3.70;3.13;;;20.50;99.90;;;;;;5052293;28;20440;-73
2023/06/23 01:50:07;;;;;;;3.27;3.07;;;20.50;99.90;;;;;;5052287;28;20441;-72
2023/06/23 01:52:35;;;;;;;4.67;3.80;;;20.50;99.90;;;;;;5052213;28;20421;-73
2023/06/23 01:55:02;;;;;;;3.83;2.87;;;20.50;99.90;;;;;;5051970;28;20838;-73
2023/06/23 01:57:29;;;;;;;3.63;2.70;;;20.50;99.90;;;;;;5052165;28;20433;-73
2023/06/23 01:59:56;;;;;;;3.63;2.80;;;20.40;99.90;;;;;;5052236;28;20488;-73
2023/06/23 02:02:23;;;;;;;3.33;2.50;;;20.40;99.90;;;;;;5052136;28;20417;-73
2023/06/23 02:04:51;;;;;;;4.90;2.60;;;20.40;99.90;;;;;;5050788;28;20409;-73
2023/06/23 02:07:18;;;;;;;4.50;3.47;;;20.40;99.90;;;;;;5051691;28;20546;-73
2023/06/23 02:09:45;;;;;;;4.50;2.87;;;20.40;99.90;;;;;;5052083;28;20405;-73
2023/06/23 02:12:12;;;;;;;6.13;3.93;;;20.50;99.90;;;;;;5051965;28;20441;-72
2023/06/23 02:14:39;;;;;;;4.70;4.00;;;20.50;99.90;;;;;;5051973;28;20937;-72
2023/06/23 02:17:10;;;;;;;5.73;3.37;;;20.50;99.90;;;;;;5051585;28;20498;-72
2023/06/23 02:19:41;;;;;;;2.80;2.50;;;20.60;99.90;;;;;;5051841;28;20449;-73
2023/06/23 02:22:10;;;;;;;3.60;3.30;;;20.60;99.90;;;;;;5051951;28;20802;-73
2023/06/23 02:24:38;;;;;;;3.10;2.80;;;20.70;99.90;;;;;;5051908;28;20397;-73
2023/06/23 02:27:05;;;;;;;5.30;4.00;;;20.70;99.90;;;;;;5050255;28;20444;-73
2023/06/23 02:29:37;;;;;;;3.23;2.60;;;20.70;99.90;;;;;;5051836;28;20421;-72
2023/06/23 02:32:03;;;;;;;4.43;3.17;;;20.80;99.90;;;;;;5051881;28;20488;-72
2023/06/23 02:34:29;;;;;;;4.10;3.20;;;20.80;99.90;;;;;;5051851;28;20532;-73
2023/06/23 02:36:58;;;;;;;8.20;3.67;;;20.80;99.90;;;;;;5051451;28;20190;-72
2023/06/23 02:39:30;;;;;;;4.57;2.83;;;20.90;99.90;;;;;;5050606;28;20544;-73
2023/06/23 02:41:58;;;;;;;4.97;3.73;;;20.80;99.90;;;;;;5054260;28;20492;-72
2023/06/23 02:45:07;;;;;;;5.90;4.10;;;20.80;99.90;;;;;;5054565;28;20417;-72
2023/06/23 02:47:39;;;;;;;5.40;4.17;;;20.80;99.90;;;;;;5055664;28;20512;-73
2023/06/23 02:50:08;;;;;;;5.73;3.57;;;20.70;99.90;;;;;;5055713;28;20475;-73
2023/06/23 02:52:34;;;;;;;3.53;3.23;;;20.70;99.90;;;;;;5055754;28;20422;-72
2023/06/23 02:55:03;;;;;;;5.10;3.10;;;20.70;99.90;;;;;;5055219;28;20405;-72
2023/06/23 02:57:30;;;;;;;2.77;2.57;;;20.70;99.90;;;;;;5055519;28;20441;-73
2023/06/23 03:00:00;;;;;;;5.00;3.60;;;20.70;99.90;;;;;;5055495;28;20874;-73
2023/06/23 03:02:28;;;;;;;7.23;4.50;;;20.70;99.90;;;;;;5055664;28;20816;-73
2023/06/23 03:04:57;;;;;;;4.17;3.40;;;20.60;99.90;;;;;;5055227;28;20409;-72
2023/06/23 03:07:22;;;;;;;6.23;5.63;;;20.60;99.90;;;;;;5055199;28;20441;-73
2023/06/23 03:09:48;;;;;;;5.47;4.83;;;20.50;99.90;;;;;;5055258;28;20444;-72
2023/06/23 03:12:13;;;;;;;6.50;4.07;;;20.50;99.90;;;;;;5055320;28;20524;-73
2023/06/23 03:14:39;;;;;;;5.93;4.33;;;20.50;99.90;;;;;;5055259;28;20190;-73
2023/06/23 03:17:22;;;;;;;6.47;4.10;;;20.40;99.90;;;;;;5054909;28;20190;-73
2023/06/23 03:20:10;;;;;;;4.20;3.37;;;20.40;99.90;;;;;;5055157;28;20533;-72
2023/06/23 03:22:41;;;;;;;8.03;6.30;;;20.30;99.90;;;;;;5053949;28;20409;-73
2023/06/23 03:25:12;;;;;;;6.87;4.53;;;20.40;99.90;;;;;;5054756;28;20412;-73
2023/06/23 03:27:40;;;;;;;10.40;5.03;;;20.40;99.90;;;;;;5055007;28;20421;-73
2023/06/23 03:30:14;;;;;;;5.27;4.77;;;20.40;99.90;;;;;;5055036;28;20492;-73
2023/06/23 03:32:46;;;;;;;5.33;4.43;;;20.40;99.90;;;;;;5054988;28;20412;-73
2023/06/23 03:35:18;;;;;;;9.13;4.73;;;20.30;99.90;;;;;;5054670;28;20471;-73
2023/06/23 03:37:52;;;;;;;8.63;4.80;;;20.20;99.90;;;;;;5054781;28;20425;-72
2023/06/23 03:40:20;;;;;;;9.20;4.90;;;20.20;99.90;;;;;;5054838;28;20459;-73
2023/06/23 03:42:55;;;;;;;7.10;4.57;;;20.20;99.90;;;;;;5054774;28;20436;-73
2023/06/23 03:45:23;;;;;;;5.47;4.97;;;20.20;99.90;;;;;;5054437;28;20940;-73
2023/06/23 03:47:54;;;;;;;6.07;4.80;;;20.20;99.90;;;;;;5053394;28;20401;-72
2023/06/23 03:50:24;;;;;;;12.87;5.70;;;20.20;99.90;;;;;;5053474;28;21002;-73
2023/06/23 03:52:50;;;;;;;11.43;5.97;;;20.20;99.90;;;;;;5053879;28;20459;-73
2023/06/23 03:55:20;;;;;;;9.50;5.37;;;20.10;99.90;;;;;;5054179;28;20405;-73
2023/06/23 03:57:48;;;;;;;5.30;4.07;;;20.10;99.90;;;;;;5054278;28;20421;-72
2023/06/23 04:00:16;;;;;;;7.13;6.20;;;20.00;99.90;;;;;;5054328;28;20449;-73
2023/06/23 04:02:44;;;;;;;7.63;4.10;;;20.00;99.90;;;;;;5053089;28;20447;-73
2023/06/23 04:05:13;;;;;;;11.40;7.03;;;20.00;99.90;;;;;;5054070;28;20774;-72
2023/06/23 04:07:40;;;;;;;5.53;3.30;;;19.90;99.90;;;;;;5054136;28;20532;-73
2023/06/23 04:10:07;;;;;;;10.40;6.37;;;20.00;99.90;;;;;;5054070;28;20428;-73
2023/06/23 04:12:34;;;;;;;7.80;6.13;;;20.00;99.90;;;;;;5054100;28;20417;-73
2023/06/23 04:15:01;;;;;;;5.50;4.60;;;20.00;99.90;;;;;;5053950;28;20448;-69
2023/06/23 04:17:29;;;;;;;9.17;5.40;;;20.10;99.90;;;;;;5053948;28;20437;-73
2023/06/23 04:19:57;;;;;;;7.13;5.83;;;20.10;99.90;;;;;;5054012;28;20862;-73
2023/06/23 04:22:25;;;;;;;7.60;4.90;;;20.10;99.90;;;;;;5052773;28;20790;-73
2023/06/23 04:24:52;;;;;;;8.30;6.40;;;20.10;99.90;;;;;;5053832;28;20888;-72
2023/06/23 04:27:21;;;;;;;10.07;6.30;;;20.10;99.90;;;;;;5053596;28;20950;-73
2023/06/23 04:29:49;;;;;;;5.20;4.30;;;20.10;99.90;;;;;;5053896;28;20410;-73
2023/06/23 04:32:16;;;;;;;7.37;5.27;;;20.10;99.90;;;;;;5052523;28;20917;-73
2023/06/23 04:34:45;;;;;;;9.00;6.70;;;20.20;99.90;;;;;;5053665;28;20500;-73
2023/06/23 04:37:33;;;;;;;8.80;8.00;;;20.30;99.90;;;;;;5053572;28;20901;-74
2023/06/23 04:40:08;;;;;;;9.30;7.37;;;20.30;99.90;;;;;;5054088;28;20551;-72
2023/06/23 04:42:44;;;;;;;11.03;6.87;;;20.40;99.90;;;;;;5054498;28;20488;-72
2023/06/23 04:45:17;;;;;;;14.10;7.13;;;20.50;99.90;;;;;;5054002;28;20393;-71
2023/06/23 04:47:47;;;;;;;10.23;6.97;;;20.60;99.90;;;;;;5053862;28;20421;-72
2023/06/23 04:50:15;;;;;;;10.30;7.70;;;20.70;99.90;;;;;;5053471;28;20419;-71
2023/06/23 04:52:46;;;;;;;7.93;7.10;;;20.70;99.90;;;;;;5053378;28;20957;-71
2023/06/23 04:55:14;;;;;;;10.83;6.30;;;20.80;99.90;;;;;;5053162;28;20429;-71
2023/06/23 04:57:44;;;;;;;9.93;7.50;;;20.80;99.90;;;;;;5053200;28;20509;-74
2023/06/23 05:00:15;;;;;;;9.37;7.70;;;20.90;99.90;;;;;;5053088;28;20460;-74
2023/06/23 05:02:41;;;;;;;8.43;7.60;;;20.90;99.90;;;;;;5053221;28;20920;-71
2023/06/23 05:05:08;;;;;;;10.57;7.60;;;20.80;99.90;;;;;;5052853;28;20409;-71
2023/06/23 05:07:37;;;;;;;10.20;7.43;;;20.80;99.90;;;;;;5052927;28;20455;-74
2023/06/23 05:10:04;;;;;;;8.90;6.47;;;20.80;99.90;;;;;;5053077;28;20405;-72
2023/06/23 05:12:32;;;;;;;14.07;7.30;;;20.90;99.90;;;;;;5052967;28;20409;-74
2023/06/23 05:14:59;;;;;;;11.20;7.60;;;21.00;99.90;;;;;;5052814;28;20409;-74
2023/06/23 05:17:26;;;;;;;8.83;6.07;;;21.10;99.90;;;;;;5052875;28;20491;-75
2023/06/23 05:19:53;;;;;;;9.40;8.23;;;21.20;99.90;;;;;;5052776;28;20460;-74
2023/06/23 05:22:23;;;;;;;10.43;6.40;;;21.30;99.90;;;;;;5051560;28;20940;-73
2023/06/23 05:24:54;;;;;;;8.97;6.90;;;21.30;99.90;;;;;;5052823;28;20398;-74
2023/06/23 05:27:22;;;;;;;10.50;6.90;;;21.30;99.90;;;;;;5052504;28;20425;-74
2023/06/23 05:29:50;;;;;;;9.73;7.27;;;21.40;99.90;;;;;;5052745;28;20417;-74
2023/06/23 05:32:17;;;;;;;13.87;7.77;;;21.50;99.90;;;;;;5052620;28;20908;-74
2023/06/23 05:34:46;;;;;;;10.97;8.30;;;21.50;99.90;;;;;;5052763;28;20417;-74
2023/06/23 05:37:14;;;;;;;19.70;8.27;;;21.60;99.90;;;;;;5052246;28;20516;-74
2023/06/23 05:39:41;;;;;;;8.00;6.70;;;21.60;99.90;;;;;;5052554;28;20449;-74
2023/06/23 05:42:07;;;;;;;8.23;6.97;;;21.70;99.90;;;;;;5052480;28;20413;-74
2023/06/23 05:44:33;;;;;;;7.60;6.60;;;21.70;99.90;;;;;;5052500;28;20451;-74
2023/06/23 05:47:01;;;;;;;12.50;7.67;;;21.70;99.90;;;;;;5052746;28;20179;-72
2023/06/23 05:49:29;;;;;;;9.47;5.67;;;21.70;99.90;;;;;;5053167;28;20389;-73
2023/06/23 05:51:58;;;;;;;7.90;5.40;;;21.70;99.90;;;;;;5052722;28;20401;-71
2023/06/23 05:54:26;;;;;;;16.03;7.20;;;21.60;99.90;;;;;;5052551;28;20397;-72
2023/06/23 05:56:57;;;;;;;14.20;8.43;;;21.70;99.90;;;;;;5052038;28;20475;-72
2023/06/23 05:59:36;;;;;;;13.20;9.60;;;21.70;99.90;;;;;;5052607;28;20985;-73
2023/06/23 06:02:04;;;;;;;8.57;7.27;;;21.70;99.90;;;;;;5052805;28;20402;-73
2023/06/23 06:04:32;;;;;;;7.67;5.83;;;21.70;99.90;;;;;;5053285;28;20440;-72
2023/06/23 06:06:59;;;;;;;7.40;5.53;;;21.70;99.90;;;;;;5052096;28;20449;-71
2023/06/23 06:09:27;;;;;;;6.40;5.80;;;21.70;99.90;;;;;;5052390;28;21001;-71
2023/06/23 06:11:54;;;;;;;9.00;6.63;;;21.90;99.90;;;;;;5051974;28;20405;-71
2023/06/23 06:14:21;;;;;;;7.00;6.27;;;22.10;99.90;;;;;;5051976;28;20504;-71
2023/06/23 06:16:48;;;;;;;10.10;6.97;;;22.60;99.90;;;;;;5051198;28;20420;-71
2023/06/23 06:19:16;;;;;;;7.20;6.07;;;23.20;99.90;;;;;;5051791;28;20566;-72
2023/06/23 06:21:44;;;;;;;8.67;5.70;;;23.50;99.90;;;;;;5051909;28;20447;-71
2023/06/23 06:24:13;;;;;;;8.50;6.50;;;23.70;99.90;;;;;;5051991;28;20865;-74
2023/06/23 06:26:41;;;;;;;8.07;6.77;;;23.80;99.90;;;;;;5051990;28;20448;-73
2023/06/23 06:29:09;;;;;;;8.47;6.90;;;24.10;99.90;;;;;;5052371;28;20401;-73
2023/06/23 06:31:37;;;;;;;12.97;7.60;;;24.50;99.90;;;;;;5052232;28;20437;-73
2023/06/23 06:34:05;;;;;;;9.97;8.23;;;24.60;99.90;;;;;;5052058;28;20429;-73
2023/06/23 06:36:34;;;;;;;11.53;6.57;;;24.90;99.90;;;;;;5051727;28;20829;-73
2023/06/23 06:39:00;;;;;;;8.80;7.90;;;25.20;99.90;;;;;;5052125;28;20445;-72
2023/06/23 06:41:27;;;;;;;15.03;10.57;;;25.20;99.90;;;;;;5050622;28;20420;-71
2023/06/23 06:43:52;;;;;;;9.17;6.77;;;25.20;99.90;;;;;;5051956;28;20429;-72
2023/06/23 06:46:19;;;;;;;10.07;7.13;;;25.30;99.90;;;;;;5051391;28;20424;-70
2023/06/23 06:48:47;;;;;;;9.67;7.00;;;26.00;99.90;;;;;;5051676;28;20170;-70
2023/06/23 06:51:15;;;;;;;11.80;6.40;;;26.50;99.90;;;;;;5051180;28;20409;-70
2023/06/23 06:53:41;;;;;;;10.60;7.00;;;26.60;99.90;;;;;;5051511;28;20467;-70
2023/06/23 06:56:08;;;;;;;7.87;7.07;;;26.30;99.90;;;;;;5051322;28;20429;-71
2023/06/23 06:58:34;;;;;;;10.10;7.40;;;26.10;99.90;;;;;;5051611;28;20902;-72
2023/06/23 07:01:01;;;;;;;6.70;6.03;;;25.90;99.90;;;;;;5051543;28;20805;-71
2023/06/23 07:03:26;;;;;;;9.93;7.57;;;25.60;99.90;;;;;;5051562;28;20474;-71
2023/06/23 07:05:52;;;;;;;8.97;6.67;;;25.40;99.90;;;;;;5051152;28;20945;-71
2023/06/23 07:08:18;;;;;;;7.40;6.60;;;25.40;99.90;;;;;;5051398;28;20187;-71
2023/06/23 07:10:43;;;;;;;11.90;6.93;;;25.30;99.90;;;;;;5051436;28;20175;-70
2023/06/23 07:13:09;;;;;;;8.70;6.87;;;25.10;99.90;;;;;;5051547;28;20193;-73
2023/06/23 07:15:34;;;;;;;8.57;6.90;;;25.00;99.90;;;;;;5051180;28;20171;-74
2023/06/23 07:18:00;;;;;;;14.00;7.80;;;24.80;99.90;;;;;;5051538;28;20405;-73
2023/06/23 07:20:25;;;;;;;8.43;7.67;;;24.60;99.90;;;;;;5051327;28;20214;-72
2023/06/23 07:22:51;;;;;;;9.17;8.27;;;24.50;99.90;;;;;;5051364;28;20175;-71
2023/06/23 07:25:17;;;;;;;16.47;7.63;;;24.80;99.90;;;;;;5051102;28;20178;-72
2023/06/23 07:27:42;;;;;;;10.00;7.33;;;25.20;99.90;;;;;;5051328;28;20186;-71
2023/06/23 07:30:08;;;;;;;9.47;7.50;;;25.60;99.90;;;;;;5054976;28;20201;-72
2023/06/23 07:32:33;;;;;;;8.20;7.40;;;26.30;99.90;;;;;;5054918;28;20259;-72
2023/06/23 07:34:59;;;;;;;6.80;6.20;;;27.50;99.90;;;;;;5054823;28;20175;-72
2023/06/23 07:37:24;;;;;;;5.80;5.23;;;28.80;99.90;;;;;;5055194;28;20187;-72
2023/06/23 07:39:50;;;;;;;7.47;6.03;;;29.90;99.90;;;;;;5055351;28;20563;-72
2023/06/23 07:42:15;;;;;;;8.03;7.13;;;31.00;99.90;;;;;;5055006;28;20690;-73
2023/06/23 07:44:41;;;;;;;7.83;7.00;;;32.30;96.10;;;;;;5054348;28;20167;-73
2023/06/23 07:47:07;;;;;;;13.43;5.73;;;32.90;88.50;;;;;;5054356;28;20234;-73
2023/06/23 07:49:33;;;;;;;6.67;6.07;;;33.50;83.20;;;;;;5054986;28;20174;-73
2023/06/23 07:52:00;;;;;;;6.80;5.70;;;34.40;76.10;;;;;;5054607;28;20171;-71
2023/06/23 07:54:29;;;;;;;5.87;5.30;;;34.70;68.00;;;;;;5054448;28;20163;-70
2023/06/23 07:56:58;;;;;;;5.50;5.10;;;35.60;66.70;;;;;;5054410;28;20512;-72
2023/06/23 07:59:25;;;;;;;5.23;4.60;;;36.80;63.30;;;;;;5054754;28;20448;-71
2023/06/23 08:01:51;;;;;;;4.90;4.50;;;37.40;57.50;;;;;;5054952;28;21033;-73
2023/06/23 08:04:17;;;;;;;4.70;4.00;;;37.00;55.50;;;;;;5054924;28;20402;-72
2023/06/23 08:06:43;;;;;;;5.60;5.13;;;36.40;55.00;;;;;;5054373;28;20579;-71
2023/06/23 08:09:08;;;;;;;5.27;4.87;;;36.00;55.40;;;;;;5054654;28;20193;-70
2023/06/23 08:11:34;;;;;;;5.33;4.63;;;36.20;55.80;;;;;;5054793;28;20182;-71
2023/06/23 08:14:00;;;;;;;5.77;5.27;;;36.70;54.60;;;;;;5054650;28;20240;-71
2023/06/23 08:16:26;;;;;;;6.70;6.13;;;37.40;54.10;;;;;;5053924;28;20677;-70
2023/06/23 08:18:52;;;;;;;5.10;4.60;;;37.30;51.50;;;;;;5053996;28;20448;-71
2023/06/23 08:21:19;;;;;;;5.57;5.07;;;37.50;51.90;;;;;;5056584;28;20496;-72
2023/06/23 08:23:45;;;;;;;5.10;4.70;;;37.70;51.50;;;;;;5056750;28;20221;-71
2023/06/23 08:26:11;;;;;;;5.83;5.30;;;37.90;51.00;;;;;;5054195;28;20428;-72
2023/06/23 08:28:37;;;;;;;4.47;4.07;;;38.90;50.60;;;;;;5054374;28;20959;-72
2023/06/23 08:31:02;;;;;;;4.60;4.20;;;40.30;49.80;;;;;;5054269;28;20175;-72
2023/06/23 08:33:28;;;;;;;5.00;4.60;;;41.60;47.80;;;;;;5054683;28;20535;-73
2023/06/23 08:35:53;;;;;;;6.47;5.87;;;42.80;45.50;;;;;;5054331;28;20243;-72
2023/06/23 08:38:19;;;;;;;5.90;5.30;;;43.70;42.40;;;;;;5054250;28;20175;-73
2023/06/23 08:40:47;;;;;;;6.30;5.43;;;44.40;41.20;;;;;;5054482;28;20167;-72
2023/06/23 08:43:12;;;;;;;4.57;4.27;;;44.90;38.70;;;;;;5054259;28;20542;-72
2023/06/23 08:45:43;;;;;;;4.73;4.33;;;45.40;38.30;;;;;;5053825;28;20384;-72
2023/06/23 08:48:09;;;;;;;3.57;3.37;;;46.00;37.30;;;;;;5054080;28;20167;-72
2023/06/23 08:50:36;;;;;;;4.77;4.33;;;46.20;36.10;;;;;;5053745;28;20395;-72
2023/06/23 08:53:05;;;;;;;4.37;4.07;;;46.50;35.70;;;;;;5053618;28;20396;-72
2023/06/23 08:55:32;;;;;;;4.20;3.80;;;46.70;34.70;;;;;;5053358;28;20384;-72
2023/06/23 08:58:01;;;;;;;5.20;4.70;;;46.90;35.60;;;;;;5059672;28;20434;-73
2023/06/23 09:00:27;;;;;;;4.50;4.10;;;46.70;33.50;;;;;;5053873;28;20501;-72
2023/06/23 09:02:53;;;;;;;4.37;3.97;;;45.90;32.80;;;;;;5053120;28;20380;-71
2023/06/23 09:05:18;;;;;;;4.73;4.33;;;46.20;33.00;;;;;;5052751;28;20383;-72
2023/06/23 09:07:44;;;;;;;4.20;3.90;;;46.00;31.80;;;;;;5056396;28;20207;-73
2023/06/23 09:10:11;;;;;;;6.03;4.07;;;44.90;32.30;;;;;;5056791;28;20170;-71
2023/06/23 09:12:48;;;;;;;5.43;4.93;;;43.80;33.20;;;;;;5053184;28;20445;-70
2023/06/23 09:15:16;;;;;;;6.80;4.40;;;43.10;34.60;;;;;;5052741;28;20471;-71
2023/06/23 09:17:44;;;;;;;4.00;3.70;;;43.10;34.60;;;;;;5052688;28;20452;-72
2023/06/23 09:20:11;;;;;;;5.20;4.80;;;43.50;34.60;;;;;;5056815;28;20491;-72
2023/06/23 09:22:38;;;;;;;4.63;4.23;;;44.00;33.30;;;;;;5054720;28;20380;-73
2023/06/23 09:25:03;;;;;;;4.63;4.23;;;45.10;33.00;;;;;;5053037;28;20380;-72
2023/06/23 09:27:41;;;;;;;4.80;4.30;;;45.30;32.30;;;;;;5052959;28;20759;-72
2023/06/23 09:30:08;;;;;;;4.50;4.10;;;46.00;31.60;;;;;;5053061;28;20198;-72
2023/06/23 09:32:33;;;;;;;5.10;4.70;;;47.00;32.40;;;;;;5053447;28;20959;-72
2023/06/23 09:34:59;;;;;;;4.43;4.13;;;47.50;32.00;;;;;;5052995;28;20539;-72
2023/06/23 09:37:25;;;;;;;4.33;4.03;;;48.30;31.40;;;;;;5053373;28;20235;-73
2023/06/23 09:39:55;;;;;;;4.20;3.90;;;49.10;31.30;;;;;;5055953;28;20198;-74
2023/06/23 09:42:22;;;;;;;4.00;3.37;;;49.90;29.90;;;;;;5059096;28;20379;-72
2023/06/23 09:44:49;;;;;;;4.10;3.77;;;50.40;29.70;;;;;;5052699;28;20886;-72
2023/06/23 09:47:16;;;;;;;5.83;5.30;;;50.60;28.60;;;;;;5052106;28;20425;-72
2023/06/23 09:49:47;;;;;;;4.90;4.27;;;50.60;28.20;;;;;;5052570;28;20391;-72
2023/06/23 09:52:14;;;;;;;3.10;2.90;;;50.90;28.30;;;;;;5052839;28;20471;-73
2023/06/23 09:54:41;;;;;;;4.23;3.83;;;51.50;28.00;;;;;;5053142;28;20419;-72
2023/06/23 09:57:07;;;;;;;3.67;3.47;;;51.30;27.40;;;;;;5052400;28;20429;-72
2023/06/23 09:59:36;;;;;;;3.53;3.13;;;50.10;27.60;;;;;;5055668;28;20537;-72
2023/06/23 10:02:02;;;;;;;4.20;3.90;;;50.00;28.10;;;;;;5059712;28;20387;-72
2023/06/23 10:04:29;;;;;;;4.30;3.90;;;49.30;28.10;;;;;;5052771;28;20829;-72
2023/06/23 10:06:55;;;;;;;3.80;3.50;;;48.80;28.20;;;;;;5052971;28;20248;-73
2023/06/23 10:09:23;;;;;;;6.93;3.60;;;47.90;28.50;;;;;;5060089;28;20411;-73
2023/06/23 10:11:50;;;;;;;3.80;3.50;;;47.00;29.00;;;;;;5058394;28;20494;-71
2023/06/23 10:14:16;;;;;;;3.37;3.17;;;47.30;29.60;;;;;;5051883;28;20376;-71
2023/06/23 10:16:45;;;;;;;4.00;3.70;;;48.00;29.80;;;;;;5051637;28;20461;-71
2023/06/23 10:19:12;;;;;;;4.00;3.70;;;48.40;28.90;;;;;;5052025;28;20690;-72
2023/06/23 10:21:39;;;;;;;3.80;3.50;;;49.30;28.90;;;;;;5053248;28;20416;-73
2023/06/23 10:24:08;;;;;;;5.93;4.03;;;50.30;28.30;;;;;;5053823;28;20450;-72
2023/06/23 10:26:36;;;;;;;3.77;3.47;;;50.90;27.70;;;;;;5052693;28;20429;-72
2023/06/23 10:29:06;;;;;;;3.93;3.70;;;51.10;27.40;;;;;;5053981;28;20436;-72
2023/06/23 10:31:33;;;;;;;3.80;3.43;;;51.70;27.50;;;;;;5053281;28;20500;-73
2023/06/23 10:34:01;;;;;;;4.37;3.67;;;51.60;26.50;;;;;;5054126;28;20410;-72
2023/06/23 10:36:30;;;;;;;4.00;3.70;;;51.90;26.60;;;;;;5053250;28;20408;-73
2023/06/23 10:39:01;;;;;;;3.83;3.57;;;52.10;26.80;;;;;;5053578;28;20460;-72
2023/06/23 10:41:27;;;;;;;4.10;3.80;;;51.90;26.30;;;;;;5054804;28;20864;-72
2023/06/23 10:43:56;;;;;;;3.40;3.20;;;52.00;26.20;;;;;;5055197;28;20410;-71
2023/06/23 10:46:25;;;;;;;4.63;4.33;;;52.60;26.20;;;;;;5053716;28;20425;-72
2023/06/23 10:48:52;;;;;;;5.10;4.70;;;53.10;25.80;;;;;;5054053;28;20409;-72
2023/06/23 10:51:18;;;;;;;4.67;4.37;;;53.40;24.70;;;;;;5054310;28;20419;-72
2023/06/23 10:53:50;;;;;;;3.77;3.50;;;53.60;25.10;;;;;;5054769;28;20417;-73
2023/06/23 10:56:29;;;;;;;5.27;3.67;;;53.90;25.20;;;;;;5054090;28;20495;-72
2023/06/23 10:58:55;;;;;;;4.77;4.47;;;54.40;25.00;;;;;;5053222;28;20401;-72
2023/06/23 11:01:20;;;;;;;4.00;3.80;;;54.40;24.50;;;;;;5053841;28;20906;-73
2023/06/23 11:03:52;;;;;;;4.33;4.07;;;54.40;24.20;;;;;;5057909;28;20220;-72
2023/06/23 11:06:27;;;;;;;4.37;3.97;;;54.70;24.60;;;;;;5056892;28;20713;-71
2023/06/23 11:08:52;;;;;;;4.67;4.33;;;54.90;24.20;;;;;;5056811;28;20467;-72
2023/06/23 11:11:32;;;;;;;4.53;4.17;;;55.30;24.40;;;;;;5056881;28;20409;-71
2023/06/23 11:13:58;;;;;;;3.60;3.40;;;55.30;23.60;;;;;;5057825;28;20166;-72
2023/06/23 11:16:31;;;;;;;4.97;4.67;;;55.30;23.90;;;;;;5057199;28;20413;-72
2023/06/23 11:18:57;;;;;;;6.93;6.33;;;55.60;23.60;;;;;;5055913;28;20170;-73
2023/06/23 11:21:33;;;;;;;4.30;4.00;;;55.70;23.00;;;;;;5056856;28;20396;-73
2023/06/23 11:24:13;;;;;;;6.80;4.57;;;55.00;22.00;;;;;;5056472;28;20816;-72
2023/06/23 11:26:51;;;;;;;4.40;4.17;;;54.80;23.30;;;;;;5056244;28;20417;-72
2023/06/23 11:29:21;;;;;;;4.30;4.10;;;55.10;23.40;;;;;;5055884;28;20456;-72
2023/06/23 11:32:04;;;;;;;4.17;3.97;;;55.40;22.90;;;;;;5054402;28;20420;-72
2023/06/23 11:34:50;;;;;;;4.70;4.30;;;55.70;22.80;;;;;;5055953;28;20408;-72
2023/06/23 11:37:16;;;;;;;4.10;3.90;;;56.20;22.70;;;;;;5055834;28;20437;-72
2023/06/23 11:39:41;;;;;;;6.67;4.00;;;56.50;22.80;;;;;;5056518;28;20765;-72
2023/06/23 11:42:07;;;;;;;4.03;3.83;;;56.70;22.40;;;;;;5055588;28;20407;-72
2023/06/23 11:44:33;;;;;;;4.67;4.37;;;56.80;22.30;;;;;;5055878;28;20166;-72
2023/06/23 11:46:58;;;;;;;4.00;3.70;;;57.00;22.70;;;;;;5054417;28;20289;-71
2023/06/23 11:49:24;;;;;;;4.00;3.80;;;57.00;21.20;;;;;;5056042;28;20199;-72
2023/06/23 11:51:50;;;;;;;4.00;3.70;;;57.00;21.60;;;;;;5055952;28;20188;-72
2023/06/23 11:54:16;;;;;;;4.10;3.90;;;57.10;21.30;;;;;;5055913;28;20171;-72
2023/06/23 11:56:42;;;;;;;4.60;4.30;;;57.10;21.30;;;;;;5055581;28;20428;-72
2023/06/23 11:59:10;;;;;;;4.17;3.90;;;57.10;21.30;;;;;;5055417;28;20409;-72
2023/06/23 12:01:36;;;;;;;4.30;4.10;;;57.00;20.70;;;;;;5055574;28;20205;-72
2023/06/23 12:04:05;;;;;;;3.67;3.47;;;56.90;20.80;;;;;;5055640;28;20404;-72
2023/06/23 12:06:35;;;;;;;4.47;4.27;;;56.80;20.60;;;;;;5055325;28;20214;-71
2023/06/23 12:09:02;;;;;;;5.53;5.13;;;56.80;21.20;;;;;;5055344;28;20444;-72
2023/06/23 12:11:29;;;;;;;4.17;3.77;;;56.80;20.40;;;;;;5055456;28;20406;-72
2023/06/23 12:13:55;;;;;;;3.63;3.43;;;56.80;20.70;;;;;;5054881;28;20484;-71
2023/06/23 12:16:20;;;;;;;4.33;3.20;;;56.80;21.00;;;;;;5055088;28;21022;-72
2023/06/23 12:18:50;;;;;;;3.80;3.50;;;56.70;21.10;;;;;;5055379;28;20170;-72
2023/06/23 12:21:21;;;;;;;3.87;3.60;;;56.40;20.90;;;;;;5055241;28;20171;-72
2023/06/23 12:23:46;;;;;;;5.50;4.40;;;55.90;20.30;;;;;;5055614;28;20398;-72
2023/06/23 12:26:14;;;;;;;3.87;3.63;;;55.40;20.80;;;;;;5054835;28;20433;-72
2023/06/23 12:28:40;;;;;;;4.00;3.70;;;55.20;21.00;;;;;;5055803;28;20213;-72
2023/06/23 12:31:06;;;;;;;4.23;3.93;;;55.00;21.20;;;;;;5055608;28;20388;-72
2023/06/23 12:33:33;;;;;;;4.43;4.13;;;54.80;21.50;;;;;;5055987;28;20387;-71
2023/06/23 12:36:07;;;;;;;4.70;3.43;;;54.30;21.20;;;;;;5055088;28;20460;-72
2023/06/23 12:38:35;;;;;;;3.33;3.13;;;53.20;21.90;;;;;;5055348;28;20372;-72
2023/06/23 12:41:17;;;;;;;3.43;3.13;;;52.50;22.30;;;;;;5055280;28;20384;-72
2023/06/23 12:43:44;;;;;;;4.77;4.33;;;52.30;22.60;;;;;;5055118;28;20405;-72
2023/06/23 12:46:11;;;;;;;3.50;3.30;;;51.90;22.70;;;;;;5053281;28;20470;-71
2023/06/23 12:48:40;;;;;;;3.53;3.30;;;52.00;22.50;;;;;;5054936;28;20405;-72
2023/06/23 12:51:06;;;;;;;3.40;3.20;;;52.10;22.70;;;;;;5054411;28;20391;-72
2023/06/23 12:53:32;;;;;;;3.10;2.80;;;50.90;21.90;;;;;;5055081;28;20567;-72